logo
Games tagged Tactical RPG
# Game Release date
Price
Score rank
(Userscore / Metascore)
Owners
Players
Playtime (Median)
Developer(s)
Publisher(s)
1 Divinity: Original Sin 2 - Definitive Edition Sep 14, 2017 $44.99N/A (N/A/93%)5,000,000 .. 10,000,0003.69%13:44 (23:20)Larian StudiosLarian Studios
2 Wildermyth Jun 15, 2021 $24.99N/A (N/A/87%)200,000 .. 500,0000%00:00 (00:00)Worldwalker Games LLCWorldwalker Games LLC, WhisperGames
3 RimWorld Oct 17, 2018 $34.99N/A (N/A/87%)2,000,000 .. 5,000,0009.76%05:11 (06:43)Ludeon StudiosLudeon Studios
4 Mass Effect Legendary Edition May 14, 2021 $59.99N/A (N/A/86%)500,000 .. 1,000,00016.67%15:35 (25:14)BioWareElectronic Arts
5 Planescape: Torment: Enhanced Edition Apr 11, 2017 $19.99N/A (N/A/85%)200,000 .. 500,0000%00:00 (00:00)BeamdogBeamdog
6 The Legend of Heroes: Trails in the Sky Jul 29, 2014 $19.99N/A (N/A/85%)200,000 .. 500,0000%00:00 (00:00)Nihon FalcomXSEED Games, Marvelous USA, Inc.
7 Silent Storm Gold Edition Sep 9, 2004 $9.99N/A (N/A/83%)100,000 .. 200,0000%00:00 (00:00)NivalTHQ Nordic
8 Pathfinder: Wrath of the Righteous Sep 2, 2021 $49.99N/A (N/A/83%)500,000 .. 1,000,0009.09%35:21 (23:33)Owlcat GamesMETA Publishing, Owlcat Games
9 Trials of Fire Apr 9, 2021 $19.99N/A (N/A/83%)50,000 .. 100,0000%00:00 (00:00)Whatboy GamesWhatboy Games
10 Valkyria Chronicles 4 Complete Edition Sep 25, 2018 $49.99N/A (N/A/83%)200,000 .. 500,0000%00:00 (00:00)SEGASEGA
11 The Banner Saga 2 Apr 19, 2016 $24.99N/A (N/A/82%)200,000 .. 500,0000%00:00 (00:00)StoicStoic Studio
12 King's Bounty: Armored Princess Nov 19, 2009 $9.99N/A (N/A/82%)500,000 .. 1,000,0000%00:00 (00:00)Katauri Interactive1C Entertainment
13 Fallout Tactics: Brotherhood of Steel Aug 19, 2009 $9.99N/A (N/A/82%)1,000,000 .. 2,000,0000%00:00 (00:00)14° EastBethesda Softworks
14 Dragon Age II Mar 8, 2011 $19.99N/A (N/A/82%)100,000 .. 200,0000%00:00 (00:00)BioWareElectronic Arts
15 Fell Seal: Arbiter's Mark Apr 30, 2019 $29.99N/A (N/A/82%)200,000 .. 500,0000%00:00 (00:00)6 Eyes Studio1C Entertainment
16 Wargroove Feb 1, 2019 $19.99N/A (N/A/82%)500,000 .. 1,000,0000%00:00 (00:00)ChucklefishChucklefish
17 The Banner Saga 3 Jul 26, 2018 $24.99N/A (N/A/82%)100,000 .. 200,0000%00:00 (00:00)StoicStoic Studio
18 Disgaea 2 PC Jan 30, 2017 $19.99N/A (N/A/81%)100,000 .. 200,0000%00:00 (00:00)Nippon Ichi Software, Inc.NIS America, Inc.
19 The Age of Decadence Oct 14, 2015 $12.99N/A (N/A/81%)100,000 .. 200,0000%00:00 (00:00)Iron Tower StudioIron Tower Studio
20 Battle Brothers Mar 24, 2017 $29.99N/A (N/A/80%)500,000 .. 1,000,0006.25%02:16 (00:45)Overhype StudiosOverhype Studios
21 Card Hunter Jul 13, 2015 FreeN/A (N/A/80%)1,000,000 .. 2,000,0000%00:00 (00:00)The Knights of UnityThe Knights of Unity
22 The Banner Saga Jan 14, 2014 $24.99N/A (N/A/80%)500,000 .. 1,000,0000%00:00 (00:00)StoicStoic Sudio
23 Fallen Enchantress: Legendary Heroes May 22, 2013 $24.99N/A (N/A/80%)200,000 .. 500,0000%00:00 (00:00)Stardock EntertainmentStardock Entertainment
24 Dark Deity Jun 15, 2021 $17.49N/A (N/A/80%)100,000 .. 200,0000%00:00 (00:00)Sword & Axe LLCFreedom Games
25 Wintermoor Tactics Club May 5, 2020 $14.99N/A (N/A/80%)20,000 .. 50,0000%00:00 (00:00)EVC GamesVersus Evil
26 King's Bounty: The Legend May 1, 2009 $6.99N/A (N/A/79%)200,000 .. 500,0000%00:00 (00:00)1C Entertainment1C Entertainment
27 Gloomhaven Oct 20, 2021 $34.99N/A (N/A/79%)200,000 .. 500,00020%18:47 (10:55)Flaming Fowl StudiosAsmodee Digital
28 Midnight Protocol Oct 13, 2021 $14.99N/A (N/A/79%)0 .. 20,0000%00:00 (00:00)LuGus StudiosIceberg Interactive
29 King's Bounty: Crossworlds Sep 17, 2010 $14.99N/A (N/A/78%)200,000 .. 500,0000%00:00 (00:00)Katauri Interactive1C Entertainment
30 Star Renegades Sep 8, 2020 $24.99N/A (N/A/77%)200,000 .. 500,0000%00:00 (00:00)Massive Damage, Inc.Raw Fury
31 Stirring Abyss Oct 29, 2020 $24.99N/A (N/A/76%)0 .. 20,0000%00:00 (00:00)Sleepy Sentry, K-ProjectSlitherine Ltd.
32 Armello Sep 1, 2015 $19.99N/A (N/A/75%)1,000,000 .. 2,000,0000%00:00 (00:00)League of GeeksLeague of Geeks
33 Chroma Squad Apr 30, 2015 $5.09N/A (N/A/75%)200,000 .. 500,0000%00:00 (00:00)Behold StudiosBehold Studios
34 Vaporum Sep 28, 2017 $19.99N/A (N/A/75%)50,000 .. 100,0000%00:00 (00:00)Fatbot Games, s. r. o.Fatbot Games, s. r. o.
35 Expeditions: Viking Apr 27, 2017 $29.99N/A (N/A/74%)200,000 .. 500,0000%00:00 (00:00)Logic ArtistsTHQ Nordic
36 Disgaea PC Feb 24, 2016 $19.99N/A (N/A/74%)200,000 .. 500,0000%00:00 (00:00)Nippon Ichi Software, Inc.NIS America, Inc.
37 Mordheim: City of the Damned Nov 19, 2015 $19.99N/A (N/A/74%)200,000 .. 500,0000%00:00 (00:00)Rogue FactorNacon
38 Blackguards 2 Jan 20, 2015 $9.99N/A (N/A/74%)100,000 .. 200,0000%00:00 (00:00)Daedalic EntertainmentDaedalic Entertainment
39 Eador. Masters of the Broken World Apr 19, 2013 $19.99N/A (N/A/74%)500,000 .. 1,000,0000%00:00 (00:00)Snowbird GamesSnowbird Games
40 King's Bounty: Warriors of the North Oct 25, 2012 $9.99N/A (N/A/74%)200,000 .. 500,0000%00:00 (00:00)1C-SoftClub1C Entertainment
41 Phoenix Point: Year One Edition Dec 3, 2020 $29.99N/A (N/A/74%)200,000 .. 500,0000%00:00 (00:00)Snapshot Games Inc.Snapshot Games Inc.
42 Fort Triumph Apr 16, 2020 $19.99N/A (N/A/74%)50,000 .. 100,0000%00:00 (00:00)CookieByte EntertainmentAll in! Games
43 Starpoint Gemini Warlords May 23, 2017 $6.99N/A (N/A/73%)200,000 .. 500,0000%00:00 (00:00)Little Green Men GamesIceberg Interactive
44 Regalia: Of Men and Monarchs May 18, 2017 $19.99N/A (N/A/73%)20,000 .. 50,0000%00:00 (00:00)Pixelated MilkPixelated Milk
45 MASSIVE CHALICE Jun 1, 2015 $19.99N/A (N/A/73%)50,000 .. 100,0000%00:00 (00:00)Double Fine ProductionsDouble Fine Productions
46 Earth 2160 Apr 1, 2006 $4.99N/A (N/A/73%)500,000 .. 1,000,0000%00:00 (00:00)Reality Pump StudiosTopware Interactive, ACE
47 Popup Dungeon Aug 12, 2020 $24.99N/A (N/A/73%)20,000 .. 50,0000%00:00 (00:00)Triple.B.TitlesHumble Games
48 Nowhere Prophet Jul 19, 2019 $24.99N/A (N/A/73%)50,000 .. 100,0000%00:00 (00:00)Sharkbomb StudiosNo More Robots
49 Halcyon 6: Starbase Commander (LIGHTSPEED EDITION) Aug 10, 2017 $14.99N/A (N/A/73%)100,000 .. 200,0000%00:00 (00:00)Massive Damage, Inc.Massive Damage, Inc.
50 Children of Zodiarcs Jul 18, 2017 $17.99N/A (N/A/73%)20,000 .. 50,0000%00:00 (00:00)Cardboard UtopiaSquare Enix
51 Aarklash: Legacy Sep 12, 2013 $15.99N/A (N/A/72%)100,000 .. 200,00012.5%00:32 (00:10)Cyanide StudioNacon
52 Halcyon 6: Starbase Commander Sep 8, 2016 $14.99N/A (N/A/71%)100,000 .. 200,0000%00:00 (00:00)Massive Damage, Inc.Massive Damage, Inc.
53 Overfall Mar 1, 2016 $4.99N/A (N/A/71%)100,000 .. 200,0000%00:00 (00:00)Pera GamesPera Games
54 Legends of Eisenwald Jul 2, 2015 $9.99N/A (N/A/71%)100,000 .. 200,0000%00:00 (00:00)Aterdux EntertainmentAterdux Entertainment
55 Viola: The Heroine's Melody Feb 17, 2021 $14.99N/A (N/A/71%)0 .. 20,0000%00:00 (00:00)Jelle van DoorneJelle van Doorne
56 SD GUNDAM G GENERATION CROSS RAYS Nov 27, 2019 $59.99N/A (N/A/71%)500,000 .. 1,000,0000%00:00 (00:00)TOM CREATE, 株式会社トムクリエイトBANDAI NAMCO Entertainment, 株式会社バンダイナムコエンターテインメント
57 Starpoint Gemini 2 Sep 26, 2014 $34.99N/A (N/A/70%)500,000 .. 1,000,0000%00:00 (00:00)Little Green Men GamesLittle Green Men Games
58 TINY METAL: FULL METAL RUMBLE Jul 11, 2019 $14.99N/A (N/A/70%)0 .. 20,0000%00:00 (00:00)AREA 35, Inc.AREA 34, Inc.
59 Blackguards Jan 22, 2014 $9.99N/A (N/A/68%)500,000 .. 1,000,0000%00:00 (00:00)Daedalic EntertainmentDaedalic Entertainment
60 Vaporum: Lockdown Sep 15, 2020 $17.99N/A (N/A/68%)0 .. 20,0000%00:00 (00:00)Fatbot Games, s. r. o.Fatbot Games, s. r. o.
61 Pathway Apr 11, 2019 $15.99N/A (N/A/68%)200,000 .. 500,0000%00:00 (00:00)RobotalityChucklefish
62 WARTILE Feb 8, 2018 $19.99N/A (N/A/68%)50,000 .. 100,0000%00:00 (00:00)Playwood ProjectDeck13, WhisperGames
63 TINY METAL Dec 21, 2017 $24.99N/A (N/A/68%)0 .. 20,0000%00:00 (00:00)AREA 35, Inc.Sony Music Entertainment (Japan) Inc. / UNTIES
64 Fallen Legion: Rise to Glory Jan 5, 2018 $29.99N/A (N/A/66%)0 .. 20,0000%00:00 (00:00)YummyYummyTummy, MintsphereYummyYummyTummy
65 Ash of Gods: Redemption Mar 23, 2018 $24.99N/A (N/A/65%)500,000 .. 1,000,0000%00:00 (00:00)AurumDustAurumDust, WhisperGames
66 Masquerada: Songs and Shadows Sep 30, 2016 $19.99N/A (N/A/64%)50,000 .. 100,0000%00:00 (00:00)Witching Hour StudiosYsbryd Games
67 Has-Been Heroes Mar 28, 2017 $19.99N/A (N/A/63%)50,000 .. 100,0000%00:00 (00:00)FrozenbyteGameTrust Games
68 Jagged Alliance: Crossfire Aug 24, 2012 $14.99N/A (N/A/63%)100,000 .. 200,0000%00:00 (00:00)Coreplay GmbHTHQ Nordic
69 Jagged Alliance - Back in Action Feb 8, 2012 $19.99N/A (N/A/62%)200,000 .. 500,0000%00:00 (00:00)Coreplay GmbH, Bigmoon StudiosTHQ Nordic
70 WARSAW Oct 2, 2019 $23.99N/A (N/A/62%)50,000 .. 100,0000%00:00 (00:00)Pixelated MilkPixelated Milk, gaming company
71 The Dwarves Dec 1, 2016 $39.99N/A (N/A/61%)200,000 .. 500,0000%00:00 (00:00)KING ArtTHQ Nordic, EuroVideo Medien
72 Prince of Qin Oct 26, 2021 $5.99N/A (N/A/61%)0 .. 20,0000%00:00 (00:00)Object SoftwareStrategy First
73 Kingdom Under Fire: The Crusaders Feb 28, 2020 $19.99N/A (N/A/60%)20,000 .. 50,0000%00:00 (00:00)BluesideBlueside, Incredi Soft
74 Jagged Alliance: Rage! Dec 6, 2018 $19.99N/A (N/A/59%)50,000 .. 100,0000%00:00 (00:00)Cliffhanger ProductionsHandyGames
75 Prime World: Defenders Jun 5, 2013 $9.99N/A (N/A/58%)100,000 .. 200,0000%00:00 (00:00)NivalNival
76 Forged of Blood Aug 1, 2019 $29.99N/A (N/A/57%)0 .. 20,0000%00:00 (00:00)Critical ForgeCritical Forge
77 City of the Shroud Aug 9, 2018 N/AN/A (N/A/57%)0 .. 20,0000%00:00 (00:00)Abyssal Arts Ltd.Abyssal Arts Ltd.
78 Tears of Avia Oct 15, 2020 $14.99N/A (N/A/56%)50,000 .. 100,0000%00:00 (00:00)CooCooSqueaky GamesPQube Limited
79 Grimshade Mar 26, 2019 $19.99N/A (N/A/53%)0 .. 20,0000%00:00 (00:00)TALEROCKAsterion Games
80 Confrontation Apr 4, 2012 $9.99N/A (N/A/51%)100,000 .. 200,0000%00:00 (00:00)Cyanide StudioFocus Home Interactive
81 Line Of Defense Tactics - Tactical Advantage Mar 17, 2014 $9.99N/A (N/A/47%)0 .. 20,0000%00:00 (00:00)3000AD3000AD
82 Heroes Tactics May 24, 2017 FreeN/A (N/A)100,000 .. 200,0000%00:00 (00:00)Camex GamesCamex Games
83 Heroes Must Die Jul 15, 2016 FreeN/A (N/A)0 .. 20,0000%00:00 (00:00)Heroic GamesHeroic Games
84 Forge of Gods (RPG) May 6, 2016 N/AN/A (N/A)500,000 .. 1,000,0000%00:00 (00:00)Panoramik IncPanoramik Inc
85 Labyrinth Mar 7, 2016 N/AN/A (N/A)50,000 .. 100,0000%00:00 (00:00)Free Range GamesFree Range Games
86 NAVYFIELD Mar 18, 2000 FreeN/A (N/A)200,000 .. 500,0000%00:00 (00:00)SDEnterNETNaiadgames
87 Quintaesencia Oct 17, 2022 FreeN/A (N/A)20,000 .. 50,0000%00:00 (00:00)AngelusAngelus
88 Requiescat Oct 2021 N/AN/A (N/A)20,000 .. 50,0000%00:00 (00:00)GameBarley CO.,LTD.GameBarley CO.,LTD.
89 Eternal Dreamers Jul 24, 2021 FreeN/A (N/A)100,000 .. 200,0000%00:00 (00:00)Studio BiestStudio Biest
90 Paradigm Shift May 31, 2021 FreeN/A (N/A)20,000 .. 50,0000%00:00 (00:00)PixieBixxie, NUU-Pro, telosLunar Boon
91 After Off War May 21, 2021 N/AN/A (N/A)0 .. 20,0000%00:00 (00:00)DAY DAY UP GAMEDAY DAY UP GAME
92 Giants May 7, 2021 FreeN/A (N/A)100,000 .. 200,0000%00:00 (00:00)Singta inc.Singta Inc.
93 Dudes on a Map: Virtual Grid Paper Apr 20, 2021 FreeN/A (N/A)0 .. 20,0000%00:00 (00:00)Big Sky Software LLCBig Sky Software LLC
94 全战天下 Apr 12, 2021 FreeN/A (N/A)20,000 .. 50,0000%00:00 (00:00)全战天下全战天下
95 Magicians' Legacy: Prologue Apr 6, 2021 FreeN/A (N/A)20,000 .. 50,0000%00:00 (00:00)Greenolor StudioGreenolor Studio
96 Heart of Enya Mar 26, 2021 FreeN/A (N/A)20,000 .. 50,0000%00:00 (00:00)Team BapyTeam Bapy
97 Condors Vs Ocelots Mar 19, 2021 FreeN/A (N/A)0 .. 20,0000%00:00 (00:00)Titanomachy StudiosTitanomachy Studios
98 Realm Engine | Virtual Tabletop Mar 5, 2021 FreeN/A (N/A)0 .. 20,0000%00:00 (00:00)Blake JohnsonPixel Ghost
99 Wonhon: Prologue Feb 28, 2021 FreeN/A (N/A)200,000 .. 500,0000%00:00 (00:00)BUSAN SANAI GAMESSuper.com
100 Wartune Reborn Feb 26, 2021 FreeN/A (N/A)50,000 .. 100,0000%00:00 (00:00)7Road7Road
101 Sid Classic Feb 18, 2021 FreeN/A (N/A)20,000 .. 50,0000%00:00 (00:00)Singta inc.Singta inc.
102 修真之路 Feb 6, 2021 FreeN/A (N/A)0 .. 20,0000%00:00 (00:00)游韵游戏网络公司游韵游戏网络公司
103 Warriors: Rise to Glory! Online Multiplayer Open Beta Jan 28, 2021 N/AN/A (N/A)50,000 .. 100,0000%00:00 (00:00)Gavra GamesGavra Games
104 Space Cats Tactics: Prologue Jan 1, 2021 FreeN/A (N/A)20,000 .. 50,0000%00:00 (00:00)Mitzi GamesMitzi Games
105 Slaves of Magic prelude Dec 14, 2020 FreeN/A (N/A)50,000 .. 100,0000%00:00 (00:00)Amethyst DreamersAmethyst Dreamers
106 Grid Fight - Mask of the Goddess - First Boot Dec 7, 2020 N/AN/A (N/A)20,000 .. 50,0000%00:00 (00:00)Playtra GamesPlaytra Games
107 911 Emergency Manager Nov 20, 2020 N/AN/A (N/A)20,000 .. 50,0000%00:00 (00:00)GoodZeit UGGoodZeit UG
108 Aegis Online Oct 30, 2020 FreeN/A (N/A)0 .. 20,0000%00:00 (00:00)Kale the QuickEaster Egg Productions
109 The Last Spell: Prologue Oct 29, 2020 N/AN/A (N/A)100,000 .. 200,0000%00:00 (00:00)Ishtar GamesThe Arcade Crew, Gamera Game (China)
110 Gladiator Guild Manager: Prologue Aug 27, 2020 FreeN/A (N/A)200,000 .. 500,0000%00:00 (00:00)Entertainment ForgeGrabTheGames, Gamera Game
111 Dungeon & Derision Aug 6, 2020 FreeN/A (N/A)0 .. 20,0000%00:00 (00:00)Alexis AngelyAlexis Angely
112 8-Bit Attack Jul 15, 2020 FreeN/A (N/A)20,000 .. 50,0000%00:00 (00:00)Startale Games, Petersen GamesStartale Games
113 DF-41 Simulator Jul 7, 2020 FreeN/A (N/A)0 .. 20,0000%00:00 (00:00)Bo ChenBo Chen
114 The falling tower Jun 23, 2020 FreeN/A (N/A)0 .. 20,0000%00:00 (00:00)CarotaaDream Night Studio
115 Hopebringers May 25, 2020 FreeN/A (N/A)0 .. 20,0000%00:00 (00:00)Critical Miss GamesCritical Miss Games
116 Zoria: Age of Shattering Prologue Apr 30, 2020 FreeN/A (N/A)50,000 .. 100,0000%00:00 (00:00)Tiny Trinket GamesTiny Trinket Games
117 INFILTRIA Mar 3, 2020 N/AN/A (N/A)0 .. 20,0000%00:00 (00:00)sectuZNETsectuZ.NET
118 Battlecraft - Tactics Online Feb 10, 2020 N/AN/A (N/A)0 .. 20,0000%00:00 (00:00)Sigil EntertainmentSigil Entertainment
119 ReversiQuest2 Jan 6, 2020 N/AN/A (N/A)0 .. 20,0000%00:00 (00:00)YokogosystemsYokogosystems
120 Mix-Sign: Girl with 3 Signs Jan 6, 2020 FreeN/A (N/A)0 .. 20,0000%00:00 (00:00)KellenKyoKellenKyo
121 Game of Thrones Winter is Coming Nov 14, 2019 FreeN/A (N/A)200,000 .. 500,0000%00:00 (00:00)YOUZU (SINGAPORE) PTE. LTD.YOUZU (SINGAPORE) PTE. LTD.
122 Dawn of the Dragons: Ascension Nov 1, 2019 FreeN/A (N/A)20,000 .. 50,0000%00:00 (00:00)5th Planet Games Development ApS5th Planet Games Development ApS
123 Braveland Heroes Sep 16, 2019 FreeN/A (N/A)50,000 .. 100,0000%00:00 (00:00)Tortuga TeamTortuga Team
124 《鬼畜战记:金坷垃传说》 Jul 26, 2019 FreeN/A (N/A)50,000 .. 100,0000%00:00 (00:00)小闲小闲
125 Gythol Granditti: The Crypt of Darkness Jul 19, 2019 FreeN/A (N/A)20,000 .. 50,0000%00:00 (00:00)GZ StormGZ Storm
126 Goblin Squad - Total Division May 10, 2019 N/AN/A (N/A)0 .. 20,0000%00:00 (00:00)Event Horizon Studios34BigThings srl
127 Margonem Feb 20, 2019 FreeN/A (N/A)0 .. 20,0000%00:00 (00:00)GarmoryGarmory
128 Age of Fear: The Free World Jan 18, 2019 FreeN/A (N/A)100,000 .. 200,0000%00:00 (00:00)Leslaw SliwkoAge of Fear
129 Chaordic Dec 17, 2018 FreeN/A (N/A)0 .. 20,0000%00:00 (00:00)Artepi CorporationArtepi Corporation
130 Find & Destroy: Tank Strategy Jun 12, 2018 FreeN/A (N/A)20,000 .. 50,0000%00:00 (00:00)mPower Games StudiomPower Games Studio
131 Tactical Monsters Rumble Arena Jan 31, 2018 FreeN/A (N/A)500,000 .. 1,000,0000%00:00 (00:00)Camex GamesCamex Games
132 Clarent Saga: Tactics Sep 25, 2017 FreeN/A (N/A)0 .. 20,0000%00:00 (00:00)David NguyenDavid Nguyen
133 Warbands: Bushido Sep 15, 2017 FreeN/A (N/A)100,000 .. 200,0000%00:00 (00:00)Red Unit StudiosRed Unit Studios
134 NEXT JUMP: Shmup Tactics Apr 28, 2017 $4.99N/A (N/A)20,000 .. 50,0000%00:00 (00:00)Post Mortem PixelsPost Mortem Pixels
135 Tokyo Twilight Ghost Hunters Daybreak: Special Gigs Mar 17, 2017 $9.99N/A (N/A)20,000 .. 50,0000%00:00 (00:00)Arc System Works, TOYBOX Inc.PQube Limited
136 Wacky Spores: The Chase Feb 10, 2017 $8.99N/A (N/A)0 .. 20,0000%00:00 (00:00)Lorenzo BellincampiLorenzo Bellincampi
137 Hellenica Jan 23, 2017 $9.99N/A (N/A)0 .. 20,0000%00:00 (00:00)The DragonloftThe Dragonloft
138 Alien Shooter TD Jan 13, 2017 $9.99N/A (N/A)50,000 .. 100,0000%00:00 (00:00)Sigma Team Inc.Sigma Team Inc.
139 Low Magic Age Jan 10, 2017 $14.99N/A (N/A)100,000 .. 200,0000%00:00 (00:00)Low Magic StudiosLow Magic Studios
140 Advanced Gaming Platform::Epica Dec 22, 2016 $19.99N/A (N/A)20,000 .. 50,0000%00:00 (00:00)AGP::StudiosAGP::Studios
141 Moekuri: Adorable + Tactical SRPG Dec 16, 2016 $11.99N/A (N/A)20,000 .. 50,0000%00:00 (00:00)MokyuSoftCulture Select
142 Castle Battles Dec 16, 2016 $9.99N/A (N/A)0 .. 20,0000%00:00 (00:00)Light Arc Studio LtdLight Arc Studio Ltd
143 Dungeon Rats Nov 4, 2016 $4.99N/A (N/A)50,000 .. 100,0000%00:00 (00:00)Iron Tower StudioIron Tower Studio
144 Farabel Oct 14, 2016 $9.99N/A (N/A)0 .. 20,0000%00:00 (00:00)FrogamesFrogames, Goblinz Digital, indienova
145 Stellar Tactics Sep 22, 2016 $19.99N/A (N/A)50,000 .. 100,0000%00:00 (00:00)Maverick GamesMaverick Games
146 Sorcerer King: Rivals Sep 22, 2016 $19.99N/A (N/A)0 .. 20,0000%00:00 (00:00)Stardock EntertainmentStardock Entertainment
147 Wooden House Sep 5, 2016 $0.99N/A (N/A)100,000 .. 200,0000%00:00 (00:00)GDNomadInfernal Dream
148 Mugen Souls Z Aug 25, 2016 $19.99N/A (N/A)0 .. 20,0000%00:00 (00:00)Idea FactoryGhostlight LTD
149 Phantom Brave PC Jul 25, 2016 $19.99N/A (N/A)50,000 .. 100,0000%00:00 (00:00)Nippon Ichi Software, Inc.NIS America, Inc.
150 Monsters' Den: Book of Dread Jun 1, 2008 $4.99N/A (N/A)100,000 .. 200,0000%00:00 (00:00)MonstrumMonstrum
151 Frost Jul 5, 2016 $6.99N/A (N/A)0 .. 20,0000%00:00 (00:00)Jérôme BodinLe Studio des Ténèbres
152 Disgraced Jun 20, 2016 $8.99N/A (N/A)50,000 .. 100,0000%00:00 (00:00)Corrosive Studios LLCCorrosive Studios LLC
153 Flesh Eaters May 3, 2016 $1.99N/A (N/A)500,000 .. 1,000,0000%00:00 (00:00)S.C. 16 BIT NIGHTS S.R.L.S.C. 16 BIT NIGHTS S.R.L.
154 Bastard Bonds Apr 29, 2016 $10.99N/A (N/A)20,000 .. 50,0000%00:00 (00:00)BigfingersBigfingers
155 Hyperdevotion Noire: Goddess Black Heart (Neptunia) Apr 26, 2016 $14.99N/A (N/A)100,000 .. 200,0000%00:00 (00:00)Idea Factory, Compile Heart, StingIdea Factory International
156 Worlds of Chaos: Invasion Feb 10, 2016 $14.99N/A (N/A)0 .. 20,0000%00:00 (00:00)TactichaosTactichaos
157 Into the Void Dec 4, 2015 $1.99N/A (N/A)20,000 .. 50,0000%00:00 (00:00)Mozg LabsMozg Labs
158 Voidspire Tactics Nov 2, 2015 $14.99N/A (N/A)20,000 .. 50,0000%00:00 (00:00)Rad CodexRad Codex
159 Mugen Souls Oct 22, 2015 $19.99N/A (N/A)50,000 .. 100,0000%00:00 (00:00)Idea FactoryGhostlight LTD
160 Fairspace Oct 21, 2015 $8.99N/A (N/A)0 .. 20,0000%00:00 (00:00)Sub Orbital SoftwareSub Orbital Software
161 Reverse Crawl Sep 24, 2015 $5.99N/A (N/A)50,000 .. 100,0000%00:00 (00:00)Nerdook ProductionsDigerati
162 Templar Battleforce Sep 21, 2015 $9.99N/A (N/A)100,000 .. 200,0000%00:00 (00:00)Trese BrothersTrese Brothers
163 Braveland Pirate Sep 15, 2015 $4.49N/A (N/A)50,000 .. 100,0000%00:00 (00:00)Tortuga TeamTortuga Team
164 Renowned Explorers: International Society Sep 2, 2015 $19.99N/A (N/A)200,000 .. 500,0000%00:00 (00:00)Abbey GamesAbbey Games
165 Fallen: A2P Protocol Aug 14, 2015 $9.99N/A (N/A)20,000 .. 50,0000%00:00 (00:00)Red KatanaRed Katana
166 Breach & Clear: Deadline Rebirth (2016) Jul 20, 2015 $9.99N/A (N/A)100,000 .. 200,0000%00:00 (00:00)Mighty Rabbit Studios, Gun MediaGood Shepherd Entertainment, Devolver Digital
167 Age of Fear: The Undead King Nov 15, 2016 $19.99N/A (N/A)20,000 .. 50,0000%00:00 (00:00)Leslaw SliwkoAge of Fear
168 Centauri Sector Jun 24, 2015 $4.99N/A (N/A)20,000 .. 50,0000%00:00 (00:00)LW GamesLW Games
169 Tap Heroes Jun 5, 2015 $2.99N/A (N/A)100,000 .. 200,0000%00:00 (00:00)VaragtPVaragtP
170 Waste Walkers Jun 1, 2015 $8.99N/A (N/A)0 .. 20,0000%00:00 (00:00)Corrosive Studios LLCCorrosive Studios LLC
171 Telepath Tactics Apr 16, 2015 $14.99N/A (N/A)0 .. 20,0000%00:00 (00:00)Sinister DesignSinister Design
172 Age of Fear 2: The Chaos Lord GOLD Mar 27, 2016 $19.99N/A (N/A)20,000 .. 50,0000%00:00 (00:00)Leslaw SliwkoAge of Fear
173 FLAMBERGE Mar 25, 2015 $9.99N/A (N/A)0 .. 20,0000%00:00 (00:00)HYDEZEKEStardock Entertainment
174 Agarest: Generations of War 2 Feb 19, 2015 $19.99N/A (N/A)20,000 .. 50,0000%00:00 (00:00)Idea FactoryGhostlight LTD
175 Rime Berta Dec 16, 2014 $14.99N/A (N/A)20,000 .. 50,0000%00:00 (00:00)NEXT-SOFT+PLAYISM
176 Braveland Wizard Dec 4, 2014 $1.99N/A (N/A)20,000 .. 50,0000%00:00 (00:00)Tortuga TeamTortuga Team
177 Valkyria Chronicles Nov 11, 2014 $19.99N/A (N/A)500,000 .. 1,000,0000%00:00 (00:00)SEGASEGA
178 Sproggiwood Oct 24, 2014 $14.99N/A (N/A)50,000 .. 100,0000%00:00 (00:00)Freehold GamesFreehold Games
179 Fantasy Grounds Classic May 9, 2014 $39.99N/A (N/A)100,000 .. 200,0000%00:00 (00:00)SmiteWorks USA, LLCSmiteWorks USA, LLC
180 7,62 High Calibre Apr 30, 2014 $4.99N/A (N/A)50,000 .. 100,0000%00:00 (00:00)Apeiron1C Entertainment
181 Agarest: Generations of War Zero Apr 17, 2014 $19.99N/A (N/A)50,000 .. 100,0000%00:00 (00:00)Idea FactoryGhostlight LTD
182 Jagged Alliance 1: Gold Edition Apr 23, 2014 $9.99N/A (N/A)50,000 .. 100,0000%00:00 (00:00)Sir-Tech, Madlab SoftwareTHQ Nordic
183 Heroes of Steel RPG Apr 23, 2014 $9.99N/A (N/A)100,000 .. 200,0000%00:00 (00:00)Trese BrothersTrese Brothers
184 Braveland Mar 17, 2014 $4.49N/A (N/A)5,000,000 .. 10,000,0000%00:00 (00:00)Tortuga TeamTortuga Team
185 Agarest: Generations of War Feb 4, 2014 $14.99N/A (N/A)100,000 .. 200,0000%00:00 (00:00)Idea FactoryGhostlight LTD
186 Jagged Alliance 2 - Wildfire Nov 16, 2012 $6.99N/A (N/A)500,000 .. 1,000,0000%00:00 (00:00)I-deal GamesTopware Interactive
187 Defender's Quest: Valley of the Forgotten (DX edition) Oct 30, 2012 $14.99N/A (N/A)200,000 .. 500,0000%00:00 (00:00)Level Up Labs, LLCLevel Up Labs
188 Shining Force Jan 26, 2011 $0.99N/A (N/A)20,000 .. 50,0000%00:00 (00:00)SEGASEGA
189 Shining Force II Jan 26, 2011 $0.99N/A (N/A)20,000 .. 50,0000%00:00 (00:00)SEGASEGA
190 Knights of the Chalice Aug 10, 2009 $19.99N/A (N/A)0 .. 20,0000%00:00 (00:00)Heroic Fantasy Games Dot ComHeroic Fantasy Games Dot Com
191 Magi Mar 21, 2007 $9.99N/A (N/A)0 .. 20,0000%00:00 (00:00)MoaCubeMoaCube
192 Castles & Catapults Mar 12, 2003 $7.99N/A (N/A)50,000 .. 100,0000%00:00 (00:00)Magic LanternAtari
193 Gorky 17 Dec 31, 1999 $4.99N/A (N/A)200,000 .. 500,0000%00:00 (00:00)Topware Interactive ACE
194 Sabre Team Jan 1, 1992 $6.99N/A (N/A)2,000,000 .. 5,000,0000%00:00 (00:00)Krisalis SoftwareZiggurat
195 Stand Of Arms Jan 16, 2022 $5.94N/A (N/A)0 .. 20,0000%00:00 (00:00)XF GameXF Game
196 Underground escape 地底逃生 Jan 14, 2022 $0.99N/A (N/A)0 .. 20,0000%00:00 (00:00)dongxujuandongxujuan
197 Idle Calibur Jan 14, 2022 $5.99N/A (N/A)20,000 .. 50,00050%03:09 (01:34)绝汪DreamStep, 绝汪
198 Mary Skelter 2 Jan 13, 2022 $29.74N/A (N/A)0 .. 20,0000%00:00 (00:00)Idea FactoryGhostlight LTD.
199 Carrier Commander Jan 10, 2022 $9.99N/A (N/A)0 .. 20,0000%00:00 (00:00)ssss
200 Rising of the Moon - Part 1 Jan 7, 2022 $4.99N/A (N/A)20,000 .. 50,0000%00:00 (00:00)ValyutechnikValyutechnik
201 Monads II Jan 7, 2022 $14.99N/A (N/A)0 .. 20,0000%00:00 (00:00)Team MonadTeam Monad
202 封神榜2022 Jan 6, 2022 $9.99N/A (N/A)20,000 .. 50,0000%00:00 (00:00)FC MakerFC Maker
203 VenusBlood HOLLOW International Jan 6, 2022 $44.99N/A (N/A)20,000 .. 50,0000%00:00 (00:00)Ninetail, DualtailJAST USA, Kagura Games (Chinese Version)
204 F-Rank hero story Jan 4, 2022 $9.99N/A (N/A)0 .. 20,0000%00:00 (00:00)Funny game studioFunny game studio
205 Galactic Dreams Jan 4, 2022 $4.99N/A (N/A)0 .. 20,0000%00:00 (00:00)Evolution VaultStrategy First
206 超越海盗 Dec 31, 2021 $1.99N/A (N/A)0 .. 20,0000%00:00 (00:00)四元方程四元方程
207 RED OPS ARCADE Dec 29, 2021 $2.99N/A (N/A)20,000 .. 50,0000%00:00 (00:00)RAIS Z.RAIDOKS GAMES
208 Watermelon Wars Dec 27, 2021 $1.99N/A (N/A)0 .. 20,0000%00:00 (00:00)SleepFly 睡神飞SleepFly 睡神飞
209 Precursors: Armored Angels Dec 27, 2021 $7.99N/A (N/A)20,000 .. 50,0000%00:00 (00:00)Artificial Worlds Ltd.Artificial Worlds Ltd.
210 Trials of Proelium Dec 16, 2021 $17.99N/A (N/A)20,000 .. 50,0000%00:00 (00:00)Retroactive FortRetroactive Fort
211 Toy War - Cannon Dec 15, 2021 $9.99N/A (N/A)0 .. 20,0000%00:00 (00:00)Toy War - CannonToy War - Cannon
212 The Thorn of Warldia Dec 10, 2021 $1.99N/A (N/A)0 .. 20,0000%00:00 (00:00)WendtOnGamesWendtOnGames
213 Crystal Raiders VR Dec 10, 2021 $14.99N/A (N/A)0 .. 20,0000%00:00 (00:00)"Nieko"VRKiwi
214 World of Bärn Dec 9, 2021 $9.99N/A (N/A)0 .. 20,0000%00:00 (00:00)Ready To PlayReady To Play
215 Wolfstride Dec 7, 2021 $14.99N/A (N/A)0 .. 20,0000%00:00 (00:00)OTA IMON StudiosRaw Fury
216 Defenders Glory Dec 6, 2021 $9.99N/A (N/A)0 .. 20,0000%00:00 (00:00)Derek Eduardo GonçalvesLoris Studio
217 Dragon Hunters Dec 3, 2021 $19.99N/A (N/A)100,000 .. 200,0000%00:00 (00:00)Sigonheart Games LLCSigonheart Games LLC
218 Paths & Danger Dec 3, 2021 $18.99N/A (N/A)0 .. 20,0000%00:00 (00:00)GoldenGod GamesGoldenGod Games
219 The Clockworker Dec 3, 2021 $1.99N/A (N/A)20,000 .. 50,0000%00:00 (00:00)Ixeria, MadBeeThe Broken Clock
220 Dice vs Dice Dec 2, 2021 $4.99N/A (N/A)0 .. 20,0000%00:00 (00:00)CodingApe GamesVulpis Yazilim
221 Mechajammer Dec 2, 2021 $24.99N/A (N/A)50,000 .. 100,0000%00:00 (00:00)Whalenought StudiosModern Wolf
222 Wartales Dec 1, 2021 $34.99N/A (N/A)100,000 .. 200,0000%00:00 (00:00)Shiro GamesShiro Unlimited
223 Gears of Phantasm: Destiny Tailored(Act I) Nov 30, 2021 FreeN/A (N/A)20,000 .. 50,0000%00:00 (00:00)Ghost in the CogwheelsPhantom Production Set
224 Raptor Territory Nov 30, 2021 $0.99N/A (N/A)0 .. 20,0000%00:00 (00:00)RedClaw ProductionsRedClaw Productions
225 Heroes of Xanfurth Nov 25, 2021 $4.99N/A (N/A)0 .. 20,0000%00:00 (00:00)Shatter Wing StudiosShatter Wing Studios
226 Sidequest Nov 22, 2021 $14.99N/A (N/A)0 .. 20,0000%00:00 (00:00)Angry-fromunAngry-fromun
227 The Missing Link Nov 22, 2021 $6.99N/A (N/A)0 .. 20,0000%00:00 (00:00)Caico Morais de BritoCaico Morais de Brito
228 战球英雄 Nov 16, 2021 $9.99N/A (N/A)0 .. 20,0000%00:00 (00:00)Chengdu Haowanyou Technologies Co., LtdChengdu Haowanyou Technologies Co., Ltd
229 问道仙途2 Nov 12, 2021 $2.99N/A (N/A)0 .. 20,0000%00:00 (00:00)青灯独酌青灯独酌
230 SAD RPG: A Social Anxiety Role Playing Game Nov 11, 2021 $7.99N/A (N/A)0 .. 20,0000%00:00 (00:00)Evil Indie GamesEvil Indie Games
231 Wulin Chess Nov 9, 2021 $11.99N/A (N/A)20,000 .. 50,0000%00:00 (00:00)LameCat StudioEast2West Games
232 Star Shift Origins Nov 8, 2021 $6.39N/A (N/A)200,000 .. 500,0000%00:00 (00:00)Psychronic Game StudiosG-DEVS.com
233 Lame Defenders Nov 8, 2021 $3.99N/A (N/A)0 .. 20,0000%00:00 (00:00)LameGamesLameGames
234 Valley Knights Nov 5, 2021 $14.99N/A (N/A)0 .. 20,0000%00:00 (00:00)Long Road GamesLong Road Games
235 Unveiled Nov 5, 2021 $1.99N/A (N/A)20,000 .. 50,0000%00:00 (00:00)AnotherIndieGameDevAnotherIndieGameDev
236 Succubus Runa and the Erotic Dungeon Nov 5, 2021 $9.99N/A (N/A)0 .. 20,0000%00:00 (00:00)藤札WASABI entertainment
237 Void Eclipse Nov 3, 2021 $29.99N/A (N/A)0 .. 20,0000%00:00 (00:00)Tau Ceti StudiosTau Ceti Studios
238 The Lost King of Avallon Nov 2, 2021 $14.99N/A (N/A)0 .. 20,0000%00:00 (00:00)Freeline Games GmbHFreeline Games GmbH
239 Broken Betrayal Nov 2021 $10.99N/A (N/A)0 .. 20,0000%00:00 (00:00)AlphaOne GamesAlphaOne Games
240 Super Robot Wars 30 Oct 27, 2021 $59.99N/A (N/A)200,000 .. 500,0000%00:00 (00:00)B.B.STUDIO CO.,LTD.BANDAI NAMCO Entertainment
241 Defend the Rook Oct 26, 2021 $17.99N/A (N/A)50,000 .. 100,00050%17:10 (17:10)One Up PlusGoblinz Publishing, Maple Whispering Limited
242 Feign Oct 23, 2021 $4.99N/A (N/A)50,000 .. 100,0000%00:00 (00:00)tenekekafalarstudiostenekekafalarstudios
243 Human Madness Oct 21, 2021 $7.99N/A (N/A)0 .. 20,0000%00:00 (00:00)The OneThe One
244 Cards of the Dead Oct 21, 2021 $7.99N/A (N/A)0 .. 20,0000%00:00 (00:00)Boomfire GamesJanduSoft
245 制服少女 Oct 21, 2021 $0.99N/A (N/A)0 .. 20,0000%00:00 (00:00)小闲小闲
246 Disciples: Liberation Oct 21, 2021 $39.99N/A (N/A)50,000 .. 100,0000%00:00 (00:00)Frima StudioKalypso Media
247 Rise of Humanity Oct 21, 2021 $19.99N/A (N/A)0 .. 20,0000%00:00 (00:00)Cybernetic WalrusCybernetic Walrus
248 Spire of Sorcery Oct 21, 2021 $20N/A (N/A)50,000 .. 100,0000%00:00 (00:00)Charlie Oscar Lima Tango Interactive EntertainmentCharlie Oscar Lima Tango Interactive Entertainment
249 Legacy of Sin the father sacrifice Oct 20, 2021 $7.99N/A (N/A)0 .. 20,0000%00:00 (00:00)Absolute Power Game StudioAbsolute Power Game Studio
250 Fear Surrounds Oct 19, 2021 $7.99N/A (N/A)200,000 .. 500,0000%00:00 (00:00)SaltyEgg StudioYooreka Studio
251 迅风的米斯特汀 Windy Mystletainn Oct 19, 2021 $0.99N/A (N/A)20,000 .. 50,0000%00:00 (00:00)索尼克冷笑黑妖
252 Delphyq Oct 19, 2021 $14.99N/A (N/A)50,000 .. 100,0000%00:00 (00:00)Dusk Wave Arts LLCDusk Wave Arts LLC
253 Content Creator's Internet Adventure Oct 14, 2021 $4.99N/A (N/A)0 .. 20,0000%00:00 (00:00)James R TrimbleSaladite Games
254 Stolen Realm Oct 14, 2021 $19.99N/A (N/A)20,000 .. 50,0000%00:00 (00:00)Burst2Flame EntertainmentBurst2Flame Entertainment
255 Gladiator Guild Manager Oct 13, 2021 $9.99N/A (N/A)100,000 .. 200,0000%00:00 (00:00)Entertainment ForgeGrabTheGames, Gamera Game
256 Dungeon Deathball Oct 13, 2021 $11.99N/A (N/A)0 .. 20,0000%00:00 (00:00)Matt GlanvilleMatt Glanville
257 Unionatic Oct 10, 2021 $9.99N/A (N/A)0 .. 20,0000%00:00 (00:00)BananaJellyBean StudiosBananaJellyBean Studios
258 Academy Quest | アカデミークエスト Oct 8, 2021 $13.99N/A (N/A)0 .. 20,0000%00:00 (00:00)つれづれつれづれ
259 Those who Came Oct 7, 2021 $24.99N/A (N/A)20,000 .. 50,0000%00:00 (00:00)ROLLDBOX GAMESROLLDBOX GAMES
260 Eclipse Oct 7, 2021 $17.99N/A (N/A)50,000 .. 100,0000%00:00 (00:00)MadRockMadRock
261 Guile & Glory: Firstborn Oct 7, 2021 $9.99N/A (N/A)0 .. 20,0000%00:00 (00:00)Elston StudiosElston Studios
262 Rescue Troopers Oct 5, 2021 $14.99N/A (N/A)0 .. 20,0000%00:00 (00:00)ssss
263 周松传 Oct 4, 2021 $2.99N/A (N/A)0 .. 20,0000%00:00 (00:00)周松传工作室周松传工作室
264 Touhou Monster TD ~ 幻想乡妖怪塔防 Oct 1, 2021 $18.99N/A (N/A)50,000 .. 100,0000%00:00 (00:00)MyACG StudioMyACG Studio
265 The Song of the Fae Oct 1, 2021 $9.99N/A (N/A)0 .. 20,0000%00:00 (00:00)TwoPM StudiosTwoPM Studios
266 西游记2021 Sep 30, 2021 $9.99N/A (N/A)20,000 .. 50,0000%00:00 (00:00)FC MakerFC Maker
267 明末边军1644 Sep 30, 2021 $4.99N/A (N/A)0 .. 20,0000%00:00 (00:00)Taizhou Blue Game Co.Ltd.Taizhou Blue Game Co.Ltd.
268 Tomes and Quests: a Word RPG Sep 30, 2021 $9.99N/A (N/A)0 .. 20,0000%00:00 (00:00)Trailblazer GamesTrailblazer Games
269 The Handler of Dragons Sep 27, 2021 $11.99N/A (N/A)0 .. 20,0000%00:00 (00:00)Hi-Quality Jerzy CalinskiGolden Eggs Studio
270 Elementowers Sep 23, 2021 $12.99N/A (N/A)0 .. 20,0000%00:00 (00:00)Lemon SqueezyLemon Squeezy
271 Guild of Ascension Sep 21, 2021 $14.99N/A (N/A)0 .. 20,0000%00:00 (00:00)WhileOne ProductionsPID Games
272 Kingdom of Heroes Sep 20, 2021 $7.99N/A (N/A)0 .. 20,0000%00:00 (00:00)MoonlightGamesMoonlightGames
273 Oath of Miko Sep 20, 2021 $3.99N/A (N/A)0 .. 20,0000%00:00 (00:00)PotS, オスファスPotS
274 Everpixel Tactics Sep 17, 2021 $11.99N/A (N/A)20,000 .. 50,0000%00:00 (00:00)Doom Dino GamesDoom Dino Games
275 Grim wanderings 2 Sep 15, 2021 $5.99N/A (N/A)100,000 .. 200,0000%00:00 (00:00)Ellinia gamesEllinia games
276 Table of Tales: The Crooked Crown Sep 14, 2021 $24.99N/A (N/A)0 .. 20,0000%00:00 (00:00)Tin Man Games, Zero One StudioTin Man Games
277 Avalom: Ancestral Heroes Sep 13, 2021 $17.99N/A (N/A)0 .. 20,0000%00:00 (00:00)WAGNER ROCHAINDIE
278 Nilia Sep 12, 2021 $3.49N/A (N/A)20,000 .. 50,0000%00:00 (00:00)4 Hats4 Hats
279 Terrain of Magical Expertise Sep 9, 2021 $24.99N/A (N/A)0 .. 20,0000%00:00 (00:00)NEO-C Productions L.L.C1C Entertainment
280 Hammerheart Sep 6, 2021 $10.99N/A (N/A)0 .. 20,0000%00:00 (00:00)Bennett FarmerBennett Farmer
281 Heads Will Roll Sep 4, 2021 $4.99N/A (N/A)0 .. 20,0000%00:00 (00:00)1917 Studios1917 Studios
282 Shawarma or Shaverma Sep 4, 2021 $0.99N/A (N/A)50,000 .. 100,0000%00:00 (00:00)Stas Paty9mkinPiece Of Voxel
283 Office Strike War - Multiplayer Battle Royale Sep 2, 2021 $0.49N/A (N/A)0 .. 20,0000%00:00 (00:00)Bad Kids GamesAtomic Fabrik, Cristian Manolachi
284 Aurora - Hidden Colors Sep 2, 2021 $4.99N/A (N/A)100,000 .. 200,0000%00:00 (00:00)Aurora - Mídia & GamesAurora - Mídia & Games
285 Soul Nomad & the World Eaters Aug 31, 2021 $19.99N/A (N/A)0 .. 20,0000%00:00 (00:00)Nippon Ichi Software, Inc., CodeglueNIS America, Inc.
286 The Curse of Feldar Vale Aug 30, 2021 $4.99N/A (N/A)0 .. 20,0000%00:00 (00:00)Ian C PookPaphian Games
287 Three Fairies' Hoppin' Flappin' Great Journey! Aug 27, 2021 $17.99N/A (N/A)0 .. 20,0000%00:00 (00:00)yomogi_softPhoenixx Inc.
288 Black Geyser: Couriers of Darkness Aug 26, 2021 $24.99N/A (N/A)50,000 .. 100,0000%00:00 (00:00)GrapeOcean TechnologiesV Publishing, GrapeOcean Technologies
289 Der Geisterjäger / The Ghost Hunter Aug 26, 2021 $17.99N/A (N/A)0 .. 20,0000%00:00 (00:00)Graverobber FoundationGraverobber Foundation
290 Captures Aug 26, 2021 $0.49N/A (N/A)0 .. 20,0000%00:00 (00:00)cosmic_dustcosmic_dust
291 Elmarion: the Lost Temple Aug 26, 2021 $9.99N/A (N/A)0 .. 20,0000%00:00 (00:00)Fleon GamesFleon Games
292 Ultimate ADOM - Caverns of Chaos Aug 25, 2021 $19.99N/A (N/A)20,000 .. 50,0000%00:00 (00:00)Thomas Biskup, Jochen Terstiege, Krzysztof Dycha, Lucas Dieguez, Bastian von Gostomski, Carola Sochiera, Björn LoesingAssemble Entertainment, WhisperGames
293 Googass Aug 25, 2021 $2.99N/A (N/A)0 .. 20,0000%00:00 (00:00)Brewsterland StudiosBrewsterland Studios
294 King's Bounty II Aug 24, 2021 $49.99N/A (N/A)100,000 .. 200,0000%00:00 (00:00)1C Entertainment1C Entertainment, Prime Matter, 方块游戏 (China)
295 Station Commander Aug 23, 2021 $7.99N/A (N/A)50,000 .. 100,0000%00:00 (00:00)Ben Marks Game StudiosBen Marks Game Studios
296 UFO vs Bikini Aug 23, 2021 $8.99N/A (N/A)0 .. 20,0000%00:00 (00:00)Xenon LuWELOVEBOT CO., LTD.
297 Heroes of Yore Aug 23, 2021 $6.99N/A (N/A)0 .. 20,0000%00:00 (00:00)Vogel Vision LLCVogel Vision LLC
298 LABYRINTH OF TOUHOU - GENSOKYO AND THE HEAVEN-PIERCING TREE Aug 23, 2021 $29.99N/A (N/A)20,000 .. 50,0000%00:00 (00:00)Nise-Eikoku Studio, CUBETYPECUBETYPE
299 Project Martians Aug 22, 2021 $7.99N/A (N/A)0 .. 20,0000%00:00 (00:00)Stanislaw DevStanislaw Dev
300 Nayati River Aug 20, 2021 $9.49N/A (N/A)20,000 .. 50,0000%00:00 (00:00)Worlds To PlayWorlds To Play
301 Endorfire Tower Defense Aug 13, 2021 $9.99N/A (N/A)0 .. 20,0000%00:00 (00:00)The ZooThe Zoo
302 Bionite: Origins Aug 13, 2021 $8.39N/A (N/A)0 .. 20,0000%00:00 (00:00)Platoon StudiosPlatoon Studios
303 Dust to the End Aug 11, 2021 $8.39N/A (N/A)50,000 .. 100,0000%00:00 (00:00)Haojoy Game, Zjoy Game2P Games
304 The Last Hope: Zombie Defense TD Aug 10, 2021 $1.99N/A (N/A)0 .. 20,0000%00:00 (00:00)DUK GamesDUK Games
305 团长别生气 Aug 5, 2021 $7.99N/A (N/A)0 .. 20,0000%00:00 (00:00)掌烛文化掌烛文化
306 GATE Jul 30, 2021 $4.99N/A (N/A)0 .. 20,0000%00:00 (00:00)Banshee CatBanshee Cat
307 Nemithia - Tale of the Legendary Saviors Jul 29, 2021 $4.99N/A (N/A)0 .. 20,0000%00:00 (00:00)Nuno "Omega Leo" DiogoNuno "Omega Leo" Diogo
308 RPG: Squad battle Jul 22, 2021 $0.59N/A (N/A)0 .. 20,0000%00:00 (00:00)Tero Lunkka, Valkeala SoftwareTero Lunkka
309 Tactical Vanguard Saga Jul 20, 2021 $4.99N/A (N/A)100,000 .. 200,0000%00:00 (00:00)Blacc Ski Weekend IndustriesBlacc Ski Weekend Industries
310 Renova Jul 20, 2021 $3.99N/A (N/A)0 .. 20,0000%00:00 (00:00)Teutonic GamesTeutonic Games
311 AirFighter Jul 20, 2021 $5.49N/A (N/A)0 .. 20,0000%00:00 (00:00)LTRG corp.khukhrovr
312 The Protagonist: EX-1 Jul 18, 2021 $24.99N/A (N/A)20,000 .. 50,0000%00:00 (00:00)3Mind Games3Mind Games
313 Pest Control Jul 15, 2021 $3.99N/A (N/A)0 .. 20,0000%00:00 (00:00)EON46Ritual Interactive
314 S.O.T.A 2 Jul 14, 2021 $4.99N/A (N/A)20,000 .. 50,0000%00:00 (00:00)S.O.T.A GamesS.O.T.A Games
315 There May Be Ninety-Nine Of Us, But We Have To Win In Ninety-Nine Turns! Jul 14, 2021 $3.99N/A (N/A)0 .. 20,0000%00:00 (00:00)Cannibal InteractiveCannibal Interactive
316 NEO: Commanders Jul 9, 2021 $4.99N/A (N/A)0 .. 20,0000%00:00 (00:00)SZEINERSZEINER
317 明明如月 Jul 2, 2021 $5.99N/A (N/A)0 .. 20,0000%00:00 (00:00)希言游戏希言游戏
318 Kuro Tactics Jul 1, 2021 $2.99N/A (N/A)20,000 .. 50,0000%00:00 (00:00)KurowareLLCKurowareLLC
319 Merge & Blade Jun 29, 2021 $5.99N/A (N/A)20,000 .. 50,0000%00:00 (00:00)Magic CubeMagic Cube
320 Mecha Tactics Jun 28, 2021 $1.99N/A (N/A)20,000 .. 50,0000%00:00 (00:00)NullBudget GamesNullBudget Games
321 Eiyu*Senki Gold – A New Conquest Jun 25, 2021 $34.99N/A (N/A)20,000 .. 50,0000%00:00 (00:00)TencoJAST USA, Kagura Games (Chinese Localization)
322 Live by the Sword: Tactics Jun 23, 2021 $24.99N/A (N/A)0 .. 20,0000%00:00 (00:00)Labrador StudiosLabrador Studios
323 Endless Love Jun 22, 2021 $0.99N/A (N/A)0 .. 20,0000%00:00 (00:00)玫瑰工作室玫瑰工作室
324 The Legends in Kylamar Jun 21, 2021 $9.99N/A (N/A)0 .. 20,0000%00:00 (00:00)Gamma Knight StudiosGamma Knight Studios
325 DREAM TIME Jun 18, 2021 $7.99N/A (N/A)0 .. 20,0000%00:00 (00:00)AI mainland Game studioAI mainland Game studio
326 Amneron's Legacy Jun 17, 2021 $8.99N/A (N/A)20,000 .. 50,0000%00:00 (00:00)Rythane (JRH)Rythane (JRH)
327 UFO2: Extraterrestrials Jun 15, 2021 $34.99N/A (N/A)0 .. 20,0000%00:00 (00:00)Chaos ConceptChaos Concept
328 The Girl Who Sees Jun 11, 2021 $8.99N/A (N/A)100,000 .. 200,0000%00:00 (00:00)InterIntellectus NFPInterIntellectus NFP
329 仙路志异 Jun 10, 2021 $5.99N/A (N/A)0 .. 20,0000%00:00 (00:00)Big Flag StudioBig Flag Studio
330 Warlike Jun 10, 2021 $3.99N/A (N/A)20,000 .. 50,0000%00:00 (00:00)Peter KnakPeter Knak
331 Rise Eterna Jun 9, 2021 $19.99N/A (N/A)0 .. 20,0000%00:00 (00:00)Makee, Forever Entertainment S. A.Forever Entertainment S. A.
332 Defense Tower Simulator Jun 5, 2021 $1.99N/A (N/A)0 .. 20,0000%00:00 (00:00)CoolCraftGames CoolCraftGames
333 The Handbook Jun 4, 2021 $5.99N/A (N/A)20,000 .. 50,0000%00:00 (00:00)Ivories StudiosIvories Studios
334 The Last Spell Jun 3, 2021 $19.99N/A (N/A)200,000 .. 500,00040%11:12 (06:49)Ishtar GamesThe Arcade Crew, Gamera Game
335 Infiltration: Alone in Combat Jun 2, 2021 $5.99N/A (N/A)20,000 .. 50,0000%00:00 (00:00)Elvio LujánElvio Luján
336 リトルハーツ May 28, 2021 $4.99N/A (N/A)0 .. 20,0000%00:00 (00:00)ゆーぎりゆーぎり
337 Love n War: Warlord by Chance May 28, 2021 $2.99N/A (N/A)50,000 .. 100,0000%00:00 (00:00)Reborn EntertainmentReborn Entertainment
338 Solasta: Crown of the Magister May 27, 2021 $39.99N/A (N/A)200,000 .. 500,0007.69%00:24 (00:08)Tactical AdventuresTactical Adventures
339 Album Corvus May 21, 2021 FreeN/A (N/A)0 .. 20,0000%00:00 (00:00)Devil's Dozen GamesDevil's Dozen Games
340 Rise of the Slime May 20, 2021 $14.99N/A (N/A)0 .. 20,0000%00:00 (00:00)Bunkovsky GamesPlaystack
341 Metaverse: Origins May 17, 2021 $9.99N/A (N/A)0 .. 20,0000%00:00 (00:00)Penumbra.techPenumbra.tech
342 The Hand of Merlin May 11, 2021 $24.99N/A (N/A)0 .. 20,0000%00:00 (00:00)Room-C Games, CroteamVersus Evil
343 Killer 19 May 9, 2021 $2.99N/A (N/A)20,000 .. 50,0000%00:00 (00:00)SkyLine Studio, 熊昊思成, 徐熙尧SkyLine Studio
344 Chroma Quaternion May 6, 2021 $14.99N/A (N/A)0 .. 20,0000%00:00 (00:00)Exe Create Inc.KEMCO
345 Keezeh The Spector of Time May 2, 2021 $1N/A (N/A)0 .. 20,0000%00:00 (00:00)rabbani prottoychalidus
346 Age of Fear 4: The Iron Killer Apr 30, 2021 $12.49N/A (N/A)0 .. 20,0000%00:00 (00:00)Leslaw SliwkoAge of Fear
347 Obsidian Prince Apr 28, 2021 $14.99N/A (N/A)0 .. 20,0000%00:00 (00:00)Unleash the GiraffeUnleash the Giraffe, Gameclaw Studio
348 Heaven vs Hell Apr 27, 2021 $4.99N/A (N/A)0 .. 20,0000%00:00 (00:00)Neex GamesGreenolor Studio
349 Elixir of Life Apr 26, 2021 $6.99N/A (N/A)0 .. 20,0000%00:00 (00:00)Gurcan GamesGurcan Games
350 Katja's Abyss: Tactics Apr 23, 2021 $10.99N/A (N/A)50,000 .. 100,0000%00:00 (00:00)Kiefer NemethKiefer Nemeth
351 NovaMundi: The Spear of Chaquén Apr 13, 2021 $12.99N/A (N/A)0 .. 20,0000%00:00 (00:00)Slashware InteractiveSlashware Interactive
352 Sentinel: Cursed Knight Apr 8, 2021 $4.99N/A (N/A)100,000 .. 200,0000%00:00 (00:00)Sentinel StudiosSentinel Studios
353 Strike Team Gladius Apr 8, 2021 $24.99N/A (N/A)0 .. 20,0000%00:00 (00:00)Wave Light Games Inc.Wave Light Games Inc.
354 Tactical Battle Chronicles: Prelude to a War Apr 7, 2021 $14.99N/A (N/A)0 .. 20,0000%00:00 (00:00)Andrew GardnerAndrew Gardner
355 Colony Ship: A Post-Earth Role Playing Game Apr 6, 2021 $24.99N/A (N/A)50,000 .. 100,0000%00:00 (00:00)Iron Tower StudioIron Tower Studio
356 FPS Tactics Apr 5, 2021 $0.99N/A (N/A)20,000 .. 50,0000%00:00 (00:00)FPS TacticsFPS Tactics
357 Chesstle Apr 2, 2021 $4.99N/A (N/A)0 .. 20,0000%00:00 (00:00)Devil Kitty Games, LLCDevil Kitty Games, LLC
358 下一站江湖Ⅰ Apr 1, 2021 $19.99N/A (N/A)0 .. 20,0000%00:00 (00:00)白玉京工作室成都搜发互娱网络科技有限公司
359 Apollyon: River of Life Mar 31, 2021 $14.99N/A (N/A)50,000 .. 100,0000%00:00 (00:00)ThuynderThuynder
360 Insanium Mar 31, 2021 $3.99N/A (N/A)20,000 .. 50,0000%00:00 (00:00)Conan McPhee, Joe AssiCatsmeat Studios
361 REM Cycles Mar 31, 2021 $14.99N/A (N/A)0 .. 20,0000%00:00 (00:00)Indispensable StudiosIndispensable Studios
362 Dee-6: Dice Defenders Apr 1, 2021 $4.99N/A (N/A)0 .. 20,0000%00:00 (00:00)KBA3u's factoryKBA3u's factory
363 No.L85 Feb 2, 2021 $1.99N/A (N/A)0 .. 20,0000%00:00 (00:00)LiZhengLiZheng
364 Dragon Blast - Crazy Action Super Hero Game Mar 26, 2021 $1.99N/A (N/A)0 .. 20,0000%00:00 (00:00)Blazio StudiosUY Studios
365 守卫魔兽-Guardian of Warcraft Mar 26, 2021 $6.99N/A (N/A)0 .. 20,0000%00:00 (00:00)长生长生
366 Black Legend Mar 25, 2021 $19.99N/A (N/A)20,000 .. 50,0000%00:00 (00:00)WarcaveWarcave
367 Burg Battle Mar 22, 2021 $9.99N/A (N/A)0 .. 20,0000%00:00 (00:00)ElevenSeventy, LLCElevenSeventy, LLC
368 Realms of Antiquity: The Shattered Crown Mar 22, 2021 $20N/A (N/A)0 .. 20,0000%00:00 (00:00)Adam HaaseQuixotic Software
369 Magellania Mar 18, 2021 $9.99N/A (N/A)50,000 .. 100,0000%00:00 (00:00)Studio LandStudio Land
370 Golden Fall 2 Mar 18, 2021 $5.99N/A (N/A)0 .. 20,0000%00:00 (00:00)Ofer RubinsteinOfer Rubinstein
371 Majestic Trials Mar 11, 2021 $14.99N/A (N/A)50,000 .. 100,0000%00:00 (00:00)Alpha Strike Games LimitedAlpha Strike Games Limited
372 ChessLocke Mar 4, 2021 $6.99N/A (N/A)0 .. 20,0000%00:00 (00:00)Taylor "Loxxulus" HattonTaylor "Loxxulus" Hatton
373 Synth War Tactics Mar 2, 2021 $0.99N/A (N/A)0 .. 20,0000%00:00 (00:00)Bryce HochstedlerBryce Hochstedler
374 Urtuk: The Desolation Feb 27, 2021 $19.99N/A (N/A)20,000 .. 50,0000%00:00 (00:00)David KaletaDavid Kaleta
375 Kitty Tactics Feb 24, 2021 $3.99N/A (N/A)20,000 .. 50,0000%00:00 (00:00)Ibe DenauxIbe Denaux
376 Might is Right Feb 19, 2021 $14.99N/A (N/A)0 .. 20,0000%00:00 (00:00)Lazy KittyLazy Kitty
377 Steven Universe: Unleash the Light Feb 19, 2021 $24.99N/A (N/A)50,000 .. 100,0000%00:00 (00:00)Grumpyface StudiosCartoon Network Games
378 Shores Unknown Feb 17, 2021 $19.99N/A (N/A)0 .. 20,0000%00:00 (00:00)VallynneHitcents
379 Bravery Network Online Feb 16, 2021 $24.99N/A (N/A)0 .. 20,0000%00:00 (00:00)GLOAMGLOAM
380 ROGUERIA: Roguelikes X Tactics Feb 13, 2021 $14.49N/A (N/A)0 .. 20,0000%00:00 (00:00)Waxycorn Studio.Waxycorn Studio.
381 CELLAR | Rags and Knife Feb 10, 2021 $1.99N/A (N/A)20,000 .. 50,0000%00:00 (00:00)Pavel DivnenkoPavel Divnenko
382 Magical Battle Cry Feb 8, 2021 $19.99N/A (N/A)50,000 .. 100,0000%00:00 (00:00)羲和工作室羲和工作室
383 Hell Shuffle Feb 4, 2021 $14.99N/A (N/A)0 .. 20,0000%00:00 (00:00)ICE TICE T
384 Cartridge Monsters Feb 4, 2021 FreeN/A (N/A)20,000 .. 50,0000%00:00 (00:00)Happenstance GamesHappenstance Games
385 Fractalis Feb 2, 2021 $7.99N/A (N/A)20,000 .. 50,0000%00:00 (00:00)Revolutionary InteractiveRevolutionary Interactive
386 Red Hands – 2-Player Game Jan 29, 2021 $4.99N/A (N/A)20,000 .. 50,0000%00:00 (00:00)PeakselPeaksel
387 鬼谷八荒 Tale of Immortal Jan 27, 2021 $19.99N/A (N/A)10,000,000 .. 20,000,00010.06%06:30 (03:50)鬼谷工作室鬼谷工作室, Lightning Games
388 King Arthur: Knight's Tale Jan 26, 2021 $34.99N/A (N/A)20,000 .. 50,0000%00:00 (00:00)NeocoreGamesNeocoreGames
389 Utawarerumono: Prelude to the Fallen Jan 22, 2021 $59.99N/A (N/A)0 .. 20,00050%00:01 (00:01)AQUAPLUSDMM GAMES, Shiravune
390 Lethal Running Jan 15, 2021 $17.99N/A (N/A)0 .. 20,0000%00:00 (00:00)voodoosoftvoodoosoft
391 Gemini Strategy Origin Jan 13, 2021 $4.99N/A (N/A)0 .. 20,0000%00:00 (00:00)Gemini Stars GamesHappy Max
392 Kingdom Heroes 8 Jan 12, 2021 $29.99N/A (N/A)200,000 .. 500,0000%00:00 (00:00)USERJOY Technology Co.,Ltd.USERJOY Technology Co.,Ltd.
393 Shards of Feyra Jan 10, 2021 $0.99N/A (N/A)0 .. 20,0000%00:00 (00:00)Feyra OnlineFeyra Online
394 Hero by Chance Jan 8, 2021 $1.99N/A (N/A)50,000 .. 100,0000%00:00 (00:00)Reborn EntertainmentReborn Entertainment
395 ZombieWave-UnlimitedChallenges Jan 6, 2021 $1.99N/A (N/A)100,000 .. 200,0000%00:00 (00:00)AlloyStoveAlloyStove
396 Two Die Jan 6, 2021 $4.99N/A (N/A)0 .. 20,0000%00:00 (00:00)Jon Lamont, Jon BraunJon Lamont, Jon Braun
397 列传:革新战争 Jan 7, 2021 $16.99N/A (N/A)0 .. 20,0000%00:00 (00:00)Ash Game StudioDreamStep
398 Caravaneer 2 Dec 30, 2020 $5.99N/A (N/A)0 .. 20,0000%00:00 (00:00)Dmitry ZheltobriukhovDmitry Zheltobriukhov
399 Unsung Story Dec 17, 2020 $29.99N/A (N/A)0 .. 20,0000%00:00 (00:00)Little OrbitLittle Orbit
400 Terra Randoma Dec 17, 2020 $14.99N/A (N/A)0 .. 20,0000%00:00 (00:00)Deniz K.Deniz K.
401 Sink Again Dec 17, 2020 $9.99N/A (N/A)20,000 .. 50,0000%00:00 (00:00)FlatcoonFlatcoon
402 Arcanium: Rise of Akhan Dec 8, 2020 $16.99N/A (N/A)0 .. 20,0000%00:00 (00:00)Supercombo, Inc.Rogue Games, Inc.
403 Guildmaster: Gratuitous Subtitle Dec 7, 2020 $13.99N/A (N/A)0 .. 20,0000%00:00 (00:00)Jim Makes GamesJim Makes Games
404 Ruinverse Dec 3, 2020 $14.99N/A (N/A)0 .. 20,0000%00:00 (00:00)Exe Create Inc.KEMCO
405 Mini War - Three Kingdoms Nov 30, 2020 $0.99N/A (N/A)0 .. 20,0000%00:00 (00:00)YangZeyuYangZeyu
406 Prime & Load : 1776 Apr 25, 2020 $7.99N/A (N/A)0 .. 20,0000%00:00 (00:00)Radio Silence EntertainmentRadio Silence Entertainment
407 Kilta Nov 20, 2020 $12.99N/A (N/A)0 .. 20,0000%00:00 (00:00)myTrueSoundmyTrueSound
408 Eterna: Heroes Fall Nov 19, 2020 $24.99N/A (N/A)0 .. 20,0000%00:00 (00:00)Zu DigitalZu Digital
409 Eldrador Creatures Nov 19, 2020 $19.99N/A (N/A)0 .. 20,0000%00:00 (00:00)Independent Arts Software GmbHWild River Games
410 Myth Bearer Nov 10, 2020 $2.99N/A (N/A)0 .. 20,0000%00:00 (00:00)JC BaileyJC Bailey
411 Raiders! Forsaken Earth Nov 10, 2020 $19.99N/A (N/A)20,000 .. 50,0000%00:00 (00:00)Creative Storm Entertainment CreativeForge Games
412 Fantasy Grounds Unity Nov 5, 2020 $39.99N/A (N/A)20,000 .. 50,00050%06:56 (06:56)SmiteWorks USA, LLCSmiteWorks USA, LLC
413 Crystal Ortha Nov 5, 2020 $14.99N/A (N/A)20,000 .. 50,0000%00:00 (00:00)Hit-Point Co.,Ltd.KEMCO
414 Battle Hunters Nov 4, 2020 $14.99N/A (N/A)0 .. 20,0000%00:00 (00:00)Phase Two Games Pty. Ltd.Phase Two Games Pty. Ltd.
415 Kingdom Of Force Nov 1, 2020 $6.99N/A (N/A)0 .. 20,0000%00:00 (00:00)Beijing Hydra Technology Co., Ltd.Beijing Hydra Technology Co., Ltd.
416 REALITY Oct 30, 2020 $1.99N/A (N/A)0 .. 20,0000%00:00 (00:00)LunaRolexLerLunaRolexLer
417 October Night Games Oct 29, 2020 $15.99N/A (N/A)0 .. 20,0000%00:00 (00:00)Octobear Knight GamesWhisperGames
418 Frag Oct 29, 2020 $5.99N/A (N/A)0 .. 20,0000%00:00 (00:00)ZuleZule
419 Dread Nautical Oct 27, 2020 $19.99N/A (N/A)0 .. 20,0000%00:00 (00:00)Zen StudiosZen Studios
420 Arcante Oct 27, 2020 $11.99N/A (N/A)20,000 .. 50,0000%00:00 (00:00)Luca FavanoLuca Favano
421 Mystic Hammer Oct 23, 2020 $4.99N/A (N/A)0 .. 20,0000%00:00 (00:00)PozziSoftPozziSoft
422 The Dungeon Beneath Oct 23, 2020 $14.99N/A (N/A)0 .. 20,0000%00:00 (00:00)Puzzle Box GamesPuzzle Box Games
423 Clouds of Rain Oct 23, 2020 $9.99N/A (N/A)20,000 .. 50,0000%00:00 (00:00)Graphic Line GamesGraphic Line Games
424 AbsentedAge: Squarebound Oct 23, 2020 $12.99N/A (N/A)50,000 .. 100,0000%00:00 (00:00)terunon's Labterunon's Lab
425 TRANSFORMERS: BATTLEGROUNDS Oct 22, 2020 $29.99N/A (N/A)0 .. 20,0000%00:00 (00:00)CoatsinkOutright Games Ltd.
426 Tenderfoot Tactics Oct 21, 2020 $24.99N/A (N/A)0 .. 20,0000%00:00 (00:00)Badru, Michael Bell, Isa Hutchinson, Taylor Thomas, Zoe Vartanian, Madison PatheIce Water Games
427 This Is Not Chess Oct 20, 2020 $7.99N/A (N/A)20,000 .. 50,0000%00:00 (00:00)Courtney DawsonCourtney Dawson
428 Kingdom Rush Vengeance - Tower Defense Oct 15, 2020 $19.99N/A (N/A)200,000 .. 500,0006.67%00:37 (00:12)Ironhide Game StudioIronhide Game Studio
429 Partisans 1941 Oct 14, 2020 $8.99N/A (N/A)200,000 .. 500,0006.25%02:07 (00:42)Alter GamesDaedalic Entertainment
430 PAGO FOREST: TOWER DEFENSE Oct 13, 2020 $4.01N/A (N/A)0 .. 20,0000%00:00 (00:00)FuturtechNova's Army
431 Dragon Lapis Oct 1, 2020 $14.99N/A (N/A)0 .. 20,0000%00:00 (00:00)Exe Create Inc.KEMCO
432 蜀山幻剑录 Sword of Shushan Sep 24, 2020 $9.99N/A (N/A)0 .. 20,0000%00:00 (00:00)星罗云布工作室星罗云布工作室
433 Spacer: Legacies Sep 23, 2020 $18.99N/A (N/A)0 .. 20,0000%00:00 (00:00)Brazen LegionsBrazen Legions
434 Infectra Sep 22, 2020 $4.99N/A (N/A)0 .. 20,0000%00:00 (00:00)Boar-in-gamesBoar-in-games
435 A Gay Love Story About Gay Love Sep 14, 2020 $0.99N/A (N/A)20,000 .. 50,0000%00:00 (00:00)Sigyaad TeamSigyaad Team
436 Disgaea 4 Complete+ Sep 10, 2020 $39.99N/A (N/A)20,000 .. 50,0000%00:00 (00:00)Nippon Ichi Software, Inc.NIS America, Inc.
437 Necromunda: Underhive Wars Sep 7, 2020 $19.99N/A (N/A)100,000 .. 200,0000%00:00 (00:00)Rogue FactorFocus Home Interactive
438 Final Hope: The Plot Sep 3, 2020 $5.99N/A (N/A)0 .. 20,0000%00:00 (00:00)Djamp GamesDjamp Games
439 Lost Patrol Sep 2, 2020 $5.99N/A (N/A)20,000 .. 50,0000%00:00 (00:00)Shadow DevelopmentPixel Games UK
440 Time Break Chronicles Sep 1, 2020 $14.99N/A (N/A)50,000 .. 100,0000%00:00 (00:00)Warrior General Games, LLCWarrior General Games, LLC
441 Hell Pub Sep 1, 2020 $1.99N/A (N/A)0 .. 20,0000%00:00 (00:00)BJ StudioBJ Studio
442 Liege Dragon Aug 30, 2020 $14.99N/A (N/A)100,000 .. 200,0000%00:00 (00:00)Exe Create Inc.KEMCO
443 经天纪 Aug 23, 2020 $0.99N/A (N/A)0 .. 20,0000%00:00 (00:00)神经虾工作组欢乐不二
444 Police Response VR : Disturbance Aug 21, 2020 $4.99N/A (N/A)0 .. 20,0000%00:00 (00:00)Caltain VR LtdCaltain VR Ltd
445 For the People Aug 13, 2020 $16.99N/A (N/A)20,000 .. 50,0000%00:00 (00:00)Brezg Studio101XP
446 Battle Sweeper Aug 13, 2020 $4.99N/A (N/A)0 .. 20,0000%00:00 (00:00)AlpaSun GamesAlpaSun Games
447 Warriors of the Nile Aug 7, 2020 $12.99N/A (N/A)200,000 .. 500,0000%00:00 (00:00)Stove StudioGamera Game
448 Canon - Legend of the New Gods Aug 7, 2020 $11.99N/A (N/A)0 .. 20,0000%00:00 (00:00)Super Fighter TeamPiko Interactive
449 Aye Aye, Captain Aug 4, 2020 $9.99N/A (N/A)0 .. 20,0000%00:00 (00:00)North State GamesNorth State Games
450 Westminster Darkly Aug 1, 2020 $3.99N/A (N/A)0 .. 20,0000%00:00 (00:00)Studio IncorrectStudio Incorrect
451 Fae Tactics Jul 31, 2020 $19.99N/A (N/A)50,000 .. 100,0000%00:00 (00:00)Endlessfluff GamesHumble Games
452 Chicken Bomb Jul 29, 2020 $0.99N/A (N/A)0 .. 20,0000%00:00 (00:00)GoesSoftGoesSoft
453 100-Level Dungeon Jul 23, 2020 $1.99N/A (N/A)20,000 .. 50,0000%00:00 (00:00)Jonathan.SJonathan.S
454 大千世界 Jul 17, 2020 $3.99N/A (N/A)100,000 .. 200,0000%00:00 (00:00)滑稽工作室滑稽工作室
455 最后的大法师 光明之旅(Last Archmage Journey of Light) Jul 16, 2020 $6.99N/A (N/A)20,000 .. 50,0000%00:00 (00:00)Flying Star GamesFlying Star Games
456 AVRACH RESURRECTION Jul 15, 2020 $9.99N/A (N/A)50,000 .. 100,0000%00:00 (00:00)Fluffy BisonsFluffy Bisons
457 ARIA CHRONICLE Jul 11, 2020 $17.99N/A (N/A)50,000 .. 100,0000%00:00 (00:00)STUDIO N9CREST
458 Dark Bestiary Jul 12, 2020 $11.99N/A (N/A)20,000 .. 50,0000%00:00 (00:00)QdQd
459 Little Town Hero Jul 9, 2020 $24.99N/A (N/A)0 .. 20,0000%00:00 (00:00)GAME FREAK inc.GAME FREAK inc.
460 Apprentice Arriving Jul 7, 2020 $12.99N/A (N/A)100,000 .. 200,0000%00:00 (00:00)Jewel Seeker EntertainmentJewel Seeker Entertainment
461 Stellaren II Jul 23, 2020 $3.99N/A (N/A)0 .. 20,0000%00:00 (00:00)nineduxninedux
462 Droid Guier Jun 30, 2020 $2.99N/A (N/A)0 .. 20,0000%00:00 (00:00)Caztellary StudioCaztellary Studio
463 Angels on Tanks Jun 23, 2020 $14.99N/A (N/A)0 .. 20,0000%00:00 (00:00)Ninju GamesNinju Games
464 DungeonTop Jun 21, 2020 $15.99N/A (N/A)20,000 .. 50,0000%00:00 (00:00)One Up Plus EntertainmentOne Up Plus Entertainment, Surefire.Games
465 The Waylanders Jun 16, 2020 $34.99N/A (N/A)0 .. 20,0000%00:00 (00:00)GATO STUDIOGATO STUDIO
466 WARBORN Jun 12, 2020 $24.99N/A (N/A)0 .. 20,0000%00:00 (00:00)Raredrop Games LtdPQube Limited
467 The Dungeon Paradox Jun 2, 2020 $14.99N/A (N/A)0 .. 20,0000%00:00 (00:00)Digital SoftwareDigital Software
468 Tales Of Glory May 30, 2020 $29.99N/A (N/A)0 .. 20,0000%00:00 (00:00)BlackTale GamesBlackTale Games
469 Strategic Mind: Blitzkrieg May 22, 2020 $25.99N/A (N/A)20,000 .. 50,0000%00:00 (00:00)Starni GamesStarni Games
470 Cyber Ops May 21, 2020 $14.99N/A (N/A)20,000 .. 50,0000%00:00 (00:00)Octeto StudiosGames Operators
471 Moonfall May 20, 2020 $4.99N/A (N/A)0 .. 20,0000%00:00 (00:00)Zak AmanaZak Amana
472 Boston AInamics May 18, 2020 $0.99N/A (N/A)0 .. 20,0000%00:00 (00:00)Boston AInamicsBoston AInamics
473 Rise of the Foederati May 4, 2020 $8.9N/A (N/A)0 .. 20,0000%00:00 (00:00)Genos StudiosGenos Studios
474 Koi Unleashed Apr 29, 2020 $15.99N/A (N/A)0 .. 20,0000%00:00 (00:00)Wild GripWild Grip
475 XCOM: Chimera Squad Apr 23, 2020 $19.99N/A (N/A)500,000 .. 1,000,0000%00:00 (00:00)Firaxis Games2K
476 TROUBLESHOOTER: Abandoned Children Apr 23, 2020 $24.99N/A (N/A)200,000 .. 500,00016.67%04:56 (01:38)DandylionDandylion
477 Warhammer Underworlds: Online Apr 21, 2020 $9.99N/A (N/A)20,000 .. 50,0000%00:00 (00:00)Steel Sky ProductionsSteel Sky Productions
478 Survival Africa Apr 17, 2020 $16.99N/A (N/A)0 .. 20,0000%00:00 (00:00)Dean ThomasMeanDean Gaming
479 Fates of Ort Mar 31, 2020 $8.99N/A (N/A)0 .. 20,0000%00:00 (00:00)8BitSkull8BitSkull
480 Treachery in Beatdown City Mar 30, 2020 $19.99N/A (N/A)0 .. 20,0000%00:00 (00:00)Nuchallenger, HurakanWorksNuchallenger
481 Lovehammer 400 000: The Buttlerian Crusade Mar 27, 2020 $14.99N/A (N/A)0 .. 20,0000%00:00 (00:00)Nerd Commando Game StudiosNerd Commando Game Studios
482 Grand Guilds Mar 26, 2020 $19.99N/A (N/A)0 .. 20,0000%00:00 (00:00)Drix StudiosDrix Studios
483 Bonfire Mar 26, 2020 $17.99N/A (N/A)0 .. 20,0000%00:00 (00:00)MoaCubeMoaCube
484 Iron Danger Mar 25, 2020 $19.99N/A (N/A)0 .. 20,0000%00:00 (00:00)Action Squad StudiosDaedalic Entertainment
485 Battle for Esturia Mar 19, 2021 $9.99N/A (N/A)0 .. 20,0000%00:00 (00:00)Esturia GamesEsturia Games
486 Horizon's Gate Mar 9, 2020 $19.99N/A (N/A)50,000 .. 100,0000%00:00 (00:00)Rad CodexRad Codex
487 Frontline: Panzer Blitzkrieg! Mar 6, 2020 $9.99N/A (N/A)0 .. 20,0000%00:00 (00:00)Frontline: Games SeriesFrontline: Games Series
488 Wasteland Remastered Feb 25, 2020 $14.99N/A (N/A)0 .. 20,0000%00:00 (00:00)inXile Entertainment, Krome StudiosinXile Entertainment
489 RaidTitans Feb 6, 2020 $8.99N/A (N/A)0 .. 20,0000%00:00 (00:00)RainbowStudioRainbowStudio
490 Mortal Glory Jan 29, 2020 $7.99N/A (N/A)50,000 .. 100,0000%00:00 (00:00)Redbeak GamesRedbeak Games
491 浮世万千之前世今生 Jan 28, 2020 $4.39N/A (N/A)50,000 .. 100,0000%00:00 (00:00)飞天大胖喵飞天大胖喵
492 Utawarerumono: Mask of Truth Jan 23, 2020 $39.99N/A (N/A)20,000 .. 50,0000%00:00 (00:00)AQUAPLUSDMM GAMES, Shiravune
493 Utawarerumono: Mask of Deception Jan 23, 2020 $39.99N/A (N/A)20,000 .. 50,00050%41:07 (41:07)AQUAPLUSDMM GAMES, Shiravune
494 Der Geisterturm / The Ghost Tower Jan 23, 2020 $7.49N/A (N/A)0 .. 20,0000%00:00 (00:00)Graverobber FoundationGraverobber Foundation
495 Graywalkers: Purgatory Jan 15, 2020 $24.99N/A (N/A)0 .. 20,0000%00:00 (00:00)Dreamlords Digital Inc.Dreamlords Digital Inc.
496 Vestaria Saga I: War of the Scions Dec 27, 2019 $19.99N/A (N/A)20,000 .. 50,0000%00:00 (00:00)Vestaria ProjectDANGEN Entertainment, Gamera Game
497 Dinodrifters Dec 20, 2019 $9.99N/A (N/A)0 .. 20,0000%00:00 (00:00)Jake Hugh Reece WilsonTrywelyn Productions
498 Day of Dragons Dec 4, 2019 $19.99N/A (N/A)100,000 .. 200,0000%00:00 (00:00)Beawesome GamesBeawesome Games
499 Familia May 1, 2020 $4.99N/A (N/A)20,000 .. 50,0000%00:00 (00:00)Joseph AbrahamMaui Game Studio
500 Steam Marines 2 Nov 20, 2019 $24.99N/A (N/A)0 .. 20,0000%00:00 (00:00)Worthless BumsWorthless Bums
501 Time For Quest Nov 14, 2019 $7.99N/A (N/A)0 .. 20,0000%00:00 (00:00)Blacer Studio, Nikodem SwiderSource Byte Sp. z o.o., Blacer Studio
502 Albedon Wars Nov 7, 2019 $24.99N/A (N/A)0 .. 20,0000%00:00 (00:00)Firemill GamesFiremill Games
503 Time of the Moon Nov 1, 2019 $9.99N/A (N/A)0 .. 20,0000%00:00 (00:00)DawnfoxDawnfox
504 Strategic Mind: The Pacific Oct 25, 2019 $17.99N/A (N/A)50,000 .. 100,0000%00:00 (00:00)Starni GamesStarni Games
505 Lakeview Valley Oct 22, 2019 $14.99N/A (N/A)50,000 .. 100,0000%00:00 (00:00)Roope TamminenRoope Tamminen
506 Spaceland: Sci-Fi Indie Tactics Sep 30, 2019 $14.99N/A (N/A)50,000 .. 100,0000%00:00 (00:00)Tortuga TeamTortuga Team
507 Balance Breakers Sep 27, 2019 $16.99N/A (N/A)0 .. 20,0000%00:00 (00:00)Gamestry LabGamestry Lab
508 Royal Merchant Sep 11, 2019 $9.99N/A (N/A)0 .. 20,0000%00:00 (00:00)BadimBadim
509 First Day Sep 1, 2019 FreeN/A (N/A)0 .. 20,0000%00:00 (00:00)BadWolf GamesBadWolf Games
510 RogueVerse Aug 22, 2019 $9.99N/A (N/A)0 .. 20,0000%00:00 (00:00)FoumartGamesFoumartGames
511 Dungeon Scavenger Aug 21, 2019 $7.99N/A (N/A)0 .. 20,0000%00:00 (00:00)Vidama Software LLCVidama Software LLC
512 Tactics V: "Obsidian Brigade" Aug 8, 2019 $19.99N/A (N/A)0 .. 20,0000%00:00 (00:00)From Nothing Game StudiosFrom Nothing Game Studios
513 Dead Hand Jul 26, 2019 $19.99N/A (N/A)0 .. 20,0000%00:00 (00:00)One Man Army GamesOne Man Army Games
514 To Battle!: Hell's Crusade Jul 24, 2019 $8.99N/A (N/A)0 .. 20,0000%00:00 (00:00)Filthy Peasant GamesFilthy Peasant Games
515 It Stares Back Jun 25, 2019 $9.99N/A (N/A)0 .. 20,0000%00:00 (00:00)Light Arc Studio LtdLight Arc Studio Ltd
516 Golden Fall Jun 14, 2019 $1.99N/A (N/A)0 .. 20,0000%00:00 (00:00)Ofer RubinsteinOfer Rubinstein
517 GOD WARS The Complete Legend Jun 13, 2019 $29.99N/A (N/A)0 .. 20,0000%00:00 (00:00)KADOKAWA GAMES, LTD.KADOKAWA GAMES, LTD.
518 Age of Fear: The Undead King GOLD Jun 11, 2019 $12.49N/A (N/A)0 .. 20,0000%00:00 (00:00)Leslaw SliwkoAge of Fear
519 Cardlings Jun 5, 2019 $4.99N/A (N/A)0 .. 20,0000%00:00 (00:00)Clockwork ChilliClockwork Chilli
520 Between the Stars May 28, 2019 $29.99N/A (N/A)50,000 .. 100,0000%00:00 (00:00)Isolated GamesIsolated Games, Poysky Productions, WhisperGames
521 Banner of the Maid May 27, 2019 $8.49N/A (N/A)200,000 .. 500,0000%00:00 (00:00)Azure Flame StudioCE-Asia
522 Idle Portal Guardian May 21, 2019 $2.99N/A (N/A)0 .. 20,0000%00:00 (00:00)ThejamiryuThejamiryu Inc.
523 Light Fairytale Episode 1 May 13, 2019 $9.99N/A (N/A)50,000 .. 100,0000%00:00 (00:00)neko.worksneko.works
524 Legend of Cina Mar 29, 2019 $6.99N/A (N/A)0 .. 20,0000%00:00 (00:00)YunkaiYunkai
525 Monads Feb 15, 2019 $9.99N/A (N/A)0 .. 20,0000%00:00 (00:00)Team MonadTeam Monad
526 Element Space Feb 14, 2019 $24.99N/A (N/A)0 .. 20,0000%00:00 (00:00)Sixth VowelInca Games
527 Euclidean Skies Feb 5, 2019 $4.99N/A (N/A)0 .. 20,0000%00:00 (00:00)Miro StrakaMiro Straka
528 Dragon Iris Feb 1, 2019 $1.99N/A (N/A)0 .. 20,0000%00:00 (00:00)Leonardo M A SilvaConsttelattions
529 Nomads of the Fallen Star Jan 30, 2019 $12.99N/A (N/A)0 .. 20,0000%00:00 (00:00)Huy PhanHuy Phan
530 Rogue Empire: Dungeon Crawler RPG Jan 25, 2019 $11.24N/A (N/A)0 .. 20,0000%00:00 (00:00)Portal EntertainmentPortal Entertainment
531 Shieldwall Chronicles: Swords of the North Dec 16, 2018 $14.99N/A (N/A)0 .. 20,0000%00:00 (00:00)Wave Light Games Inc.Wave Light Games Inc.
532 Ancient Frontier: Steel Shadows Dec 11, 2018 $14.99N/A (N/A)0 .. 20,0000%00:00 (00:00)Fair Weather Studios, LLCFair Weather Studios, LLC
533 Das Geisterschiff / The Ghost Ship Sep 19, 2018 $9.99N/A (N/A)0 .. 20,0000%00:00 (00:00)Graverobber FoundationGraverobber Foundation
534 Royal Booty Quest Nov 22, 2018 $19.99N/A (N/A)0 .. 20,0000%00:00 (00:00)BadimBadim
535 Disgaea 5 Complete Oct 22, 2018 $39.99N/A (N/A)200,000 .. 500,00011.11%00:05 (00:01)Nippon Ichi Software, Inc.NIS America, Inc.
536 Vigilantes Oct 3, 2018 $5.99N/A (N/A)0 .. 20,0000%00:00 (00:00)Timeslip SoftworksTimeslip Softworks
537 Depth of Extinction Sep 27, 2018 $14.99N/A (N/A)0 .. 20,0000%00:00 (00:00)HOF StudiosHOF Studios
538 SFD : Rogue TRPG Aug 17, 2018 $7.99N/A (N/A)0 .. 20,0000%00:00 (00:00)icefillicefill
539 Dustwind Aug 15, 2018 $24.99N/A (N/A)20,000 .. 50,0000%00:00 (00:00)Dustwind StudiosZ-Software GmbH, Dustwind Studios
540 Sword Legacy: Omen Aug 13, 2018 $17.99N/A (N/A)20,000 .. 50,0000%00:00 (00:00)Firecast Studio, Fableware Narrative DesignTeam17 Digital Ltd
541 Star Traders: Frontiers Jul 31, 2018 $14.99N/A (N/A)100,000 .. 200,00020%04:54 (01:38)Trese BrothersTrese Brothers
542 Throw Anything Jul 26, 2018 $16.99N/A (N/A)0 .. 20,0000%00:00 (00:00)Visual LightVisual Light
543 Ganbare! Super Strikers Jul 26, 2018 $9.99N/A (N/A)0 .. 20,0000%00:00 (00:00)reserese
544 The Chronicles of Quiver Dick Jul 9, 2018 $2.99N/A (N/A)20,000 .. 50,0000%00:00 (00:00)Crankage GamesCrankage Games
545 Lost Legend Jul 2, 2018 $2.99N/A (N/A)20,000 .. 50,0000%00:00 (00:00)Unhinged LLCUnhinged LLC
546 Anima: Gate of Memories - The Nameless Chronicles Jun 19, 2018 $5.99N/A (N/A)0 .. 20,0000%00:00 (00:00)Anima ProjectBadLand Publishing
547 In memory of TITAN Jun 2, 2018 $14.99N/A (N/A)0 .. 20,0000%00:00 (00:00)Valhalla Universe, Inc.XR Studio LLC
548 Spaceship Commander May 23, 2018 $9.99N/A (N/A)0 .. 20,0000%00:00 (00:00)Sokolov Yaroslav VladimirovichSokolov Yaroslav Vladimirovich
549 Bastard May 14, 2018 $8.99N/A (N/A)50,000 .. 100,0000%00:00 (00:00)Aterdux EntertainmentAterdux Entertainment
550 Demon's Rise - War for the Deep Apr 29, 2018 $6.99N/A (N/A)0 .. 20,0000%00:00 (00:00)Wave Light Games Inc.Wave Light Games Inc.
551 Demon's Rise - Lords of Chaos Apr 24, 2018 $6.99N/A (N/A)20,000 .. 50,0000%00:00 (00:00)Wave Light Games Inc.Wave Light Games Inc.
552 Tactics & Strategy Master:Joan of Arc Mar 28, 2018 $4.99N/A (N/A)20,000 .. 50,0000%00:00 (00:00)Gemini Stars GamesGemini Stars Games
553 Ambition of the Slimes Feb 15, 2018 $4.99N/A (N/A)20,000 .. 50,0000%00:00 (00:00)altairworksFlyhigh Works, CIRCLE Entertainment
554 Necromancer Returns Feb 1, 2018 $9.99N/A (N/A)0 .. 20,0000%00:00 (00:00)Greenolor StudioGreenolor Studio
555 Once upon a Dungeon Jan 19, 2018 $4.99N/A (N/A)0 .. 20,0000%00:00 (00:00)Koto GamesKoto Games
556 Army of Tentacles: (Not) A Cthulhu Dating Sim: Black GOAT of the Woods Edition Jan 4, 2018 $10.99N/A (N/A)0 .. 20,0000%00:00 (00:00)Stegalosaurus Game DevelopmentStegalosaurus Game Development
557 Strike Team Hydra Dec 8, 2017 $6.99N/A (N/A)0 .. 20,0000%00:00 (00:00)Wave Light Games Inc.Wave Light Games Inc.
558 Reverse Fantasy Legend Nov 23, 2017 $18.99N/A (N/A)0 .. 20,0000%00:00 (00:00)废材炼金术士废材炼金术士
559 Willy-Nilly Knight Nov 10, 2017 $14.99N/A (N/A)20,000 .. 50,0000%00:00 (00:00)Double Dice GamesDouble Dice Games
560 Lost Dimension Oct 30, 2017 $24.99N/A (N/A)20,000 .. 50,0000%00:00 (00:00)FURYU CorporationGhostlight LTD
561 Bionic Battle Mutants Oct 24, 2017 $4.99N/A (N/A)100,000 .. 200,0000%00:00 (00:00)MonkeyneticsMonkeynetics
562 Warbanners Oct 18, 2017 $19.99N/A (N/A)20,000 .. 50,0000%00:00 (00:00)Crasleen GamesCrasleen Games
563 Beastmancer Oct 5, 2017 $9.99N/A (N/A)0 .. 20,0000%00:00 (00:00)AutarcaAutarca
564 Ancient Frontier Sep 21, 2017 $24.99N/A (N/A)0 .. 20,0000%00:00 (00:00)Fair Weather Studios, LLCFair Weather Studios, LLC
565 Legion Tale Sep 20, 2017 $4.99N/A (N/A)50,000 .. 100,0000%00:00 (00:00)Maulidan GamesMaulidan Games
566 Garden Tale Sep 13, 2017 $9.99N/A (N/A)0 .. 20,0000%00:00 (00:00)Bonion GamesPLAYISM
567 Steam Tactics Sep 12, 2017 $4.99N/A (N/A)0 .. 20,0000%00:00 (00:00)Igor RashkuevIgor Rashkuev
568 Age of Fear 3: The Legend Sep 1, 2017 $24.99N/A (N/A)0 .. 20,0000%00:00 (00:00)Leslaw SliwkoAge of Fear
569 Weaves of Fate Aug 3, 2017 $3.99N/A (N/A)20,000 .. 50,0000%00:00 (00:00)Tom KingstonTom Kingston
570 Metal as Phuk Jul 13, 2017 $4.99N/A (N/A)0 .. 20,0000%00:00 (00:00)Crankage GamesCrankage Games
571 Brigand: Oaxaca Jul 11, 2017 $5.99N/A (N/A)1,000,000 .. 2,000,0000%00:00 (00:00)Brian Lancaster, Laughing Coyote SoftwareBrian Lancaster, Laughing Coyote Software
572 Monsters' Den: Godfall Jul 6, 2017 $14.99N/A (N/A)50,000 .. 100,0000%00:00 (00:00)MonstrumMonstrum
573 Swords and Sandals 2 Redux Jun 29, 2017 $8.99N/A (N/A)50,000 .. 100,0000%00:00 (00:00)Whiskeybarrel StudioseGames.com
574 Alvora Tactics Jun 1, 2017 $9.99N/A (N/A)0 .. 20,0000%00:00 (00:00)Rad CodexRad Codex
Overview

Tactical RPG

Games with this tag: 574
Average userscore: N/A%
Average metascore: 72.99%
Average playtime: 09:32
Total copies owned: 72,785,000
Average price: $13.85
Help

Owners: Estimated number of people owning this game. The number might be way too small for new releases and sometimes way too big for games that had free weekend event recently. Read more on About page.

Playtime: Average hours played in total per person that have actually launched this game since March 2009. This time is calculated for the whole lifetime, not for the particular year.

Average score: Average users and metacritic score for all games with this score assigned.

Average playtime: Average lifetime playtime for all games where this data is available.

Games in this genre: Self-explaining - number of games with this tag. Only inculdes games with sales data available.

Total copies owned: Refers to total copies of games with this tag acquired by users for the lifetime. Includes copies sold, downloaded for free and given out.

This number might be too small for recently released games or too big for games that had a free weekend in the last couple of months.

Graphs

Login required.

Please register or log in to see this information.

Login required.

Please register or log in to see this information.